Terminal Aerodrome Forecast
Issued by NWS

Home | Current Version | Previous Version | Text Only | Print | Product List | Glossary On
Versions: 1 2 3 4 5 6 7 8 9 10 11 12 13 14 15 16 17 18 19 20 21 22 23 24 25 26 27 28 29 30 31 32 33 34 35 36
000
FTUS41 KBOX 292324
TAFACK
TAF
KACK 292324Z 3000/3024 23008KT 6SM BR BKN250
     FM300200 23007KT 5SM BR SCT250
     FM300600 23009KT 3SM BR SCT250
     FM300800 23009KT 1SM BR BKN250
     FM301300 24012KT 3SM BR BKN003
     FM302300 22012KT 5SM BR SCT050 BKN110=

USA.gov is the U.S. government's official web portal to all federal, state and local government web resources and services.